createdAt,value
2023-01-11T00:09:57.953Z,100287.00
2023-01-11T00:20:01.566Z,100282.66
2023-01-11T00:30:05.725Z,100289.39
2023-01-11T00:40:10.121Z,100298.58
2023-01-11T00:50:13.662Z,100302.27
2023-01-11T01:00:19.122Z,100292.64
2023-01-11T01:10:22.801Z,100304.56
2023-01-11T01:20:26.727Z,100311.20
2023-01-11T01:30:30.390Z,100302.19
2023-01-11T01:40:43.526Z,100300.29
2023-01-11T01:50:55.963Z,100303.98
2023-01-11T02:01:21.524Z,100291.02
2023-01-11T02:11:32.519Z,100292.16
2023-01-11T02:22:25.308Z,100284.91
2023-01-11T02:32:53.150Z,100284.16
2023-01-11T02:43:44.703Z,100280.11
2023-01-11T02:54:02.756Z,100263.36
2023-01-11T03:04:06.290Z,100261.27
2023-01-11T03:14:40.684Z,100257.92
2023-01-11T03:24:55.918Z,100257.56
2023-01-11T03:35:11.380Z,100247.35
2023-01-11T03:45:15.299Z,100230.95
2023-01-11T03:55:19.066Z,100214.63
2023-01-11T04:05:22.854Z,100210.90
2023-01-11T04:15:26.406Z,100211.50
2023-01-11T04:25:30.049Z,100211.43
2023-01-11T04:35:33.608Z,100212.84
2023-01-11T04:45:40.444Z,100201.41
2023-01-11T04:55:44.119Z,100194.38
2023-01-11T05:05:59.082Z,100197.52
2023-01-11T05:16:02.570Z,100183.32
2023-01-11T05:26:08.901Z,100181.19
2023-01-11T05:36:17.376Z,100176.09
2023-01-11T05:46:22.489Z,100163.27
2023-01-11T05:56:26.982Z,100155.20
2023-01-11T06:06:32.967Z,100157.03
2023-01-11T06:16:36.673Z,100150.18
2023-01-11T06:26:40.339Z,100152.63
2023-01-11T06:36:43.966Z,100158.93
2023-01-11T06:46:49.159Z,100151.45
2023-01-11T06:56:52.875Z,100145.30
2023-01-11T07:06:56.581Z,100149.34
2023-01-11T07:17:00.315Z,100147.73
2023-01-11T07:27:04.028Z,100146.42
2023-01-11T07:37:29.120Z,100144.36
2023-01-11T07:47:33.129Z,100138.16
2023-01-11T07:57:36.708Z,100148.73
2023-01-11T08:07:42.410Z,100149.40
2023-01-11T08:17:46.867Z,100144.73
2023-01-11T08:27:50.449Z,100134.27
2023-01-11T08:37:54.041Z,100126.39
2023-01-11T08:47:59.823Z,100118.86
2023-01-11T08:58:03.404Z,100113.33
2023-01-11T09:08:09.091Z,100115.94
2023-01-11T09:18:13.454Z,100113.55
2023-01-11T09:28:17.593Z,100116.80
2023-01-11T09:38:21.269Z,100109.63
2023-01-11T09:48:44.169Z,100101.00
2023-01-11T09:58:51.383Z,100089.91
2023-01-11T10:19:40.709Z,100065.35
2023-01-11T10:29:58.009Z,100049.76
2023-01-11T10:40:30.616Z,100032.88
2023-01-11T10:50:48.525Z,100024.36
2023-01-11T11:01:39.927Z,100011.67
2023-01-11T11:12:03.806Z,100009.54
2023-01-11T11:22:12.620Z,99998.55
2023-01-11T11:32:27.150Z,99988.54
2023-01-11T11:42:30.848Z,99977.73
2023-01-11T11:52:35.059Z,99960.52
2023-01-11T12:02:50.211Z,99938.48
2023-01-11T12:13:03.510Z,99923.89
2023-01-11T12:23:28.349Z,99913.23
2023-01-11T12:33:31.855Z,99893.73
2023-01-11T12:43:43.387Z,99883.70
2023-01-11T12:53:52.986Z,99879.41
2023-01-11T13:04:02.415Z,99865.23
2023-01-11T13:14:37.181Z,99855.34
2023-01-11T13:24:45.456Z,99839.27
2023-01-11T13:34:55.943Z,99826.11
2023-01-11T13:45:25.345Z,99819.66
2023-01-11T13:56:08.279Z,99815.42
2023-01-11T14:06:53.638Z,99803.70
2023-01-11T14:17:09.469Z,99787.77
2023-01-11T14:27:36.960Z,99773.70
2023-01-11T14:38:19.167Z,99760.30
2023-01-11T14:49:44.302Z,99762.77
2023-01-11T14:59:48.242Z,99758.46
2023-01-11T15:09:53.956Z,99764.52
2023-01-11T15:20:07.804Z,99767.18
2023-01-11T15:30:30.066Z,99765.96
2023-01-11T15:40:40.365Z,99766.05
2023-01-11T15:51:10.951Z,99755.36
2023-01-11T16:01:24.934Z,99751.02
2023-01-11T16:12:06.633Z,99742.31
2023-01-11T16:22:22.699Z,99737.09
2023-01-11T16:32:34.713Z,99737.60
2023-01-11T16:42:44.387Z,99733.06
2023-01-11T16:53:12.629Z,99722.45
2023-01-11T17:03:22.804Z,99713.98
2023-01-11T17:25:44.822Z,99702.06
2023-01-11T17:35:49.003Z,99696.09
2023-01-11T17:46:00.301Z,99701.86
2023-01-11T17:56:27.669Z,99690.05
2023-01-11T18:06:45.460Z,99687.52
2023-01-11T18:16:57.026Z,99685.95
2023-01-11T19:05:59.828Z,99652.21
2023-01-11T19:16:03.480Z,99653.04
2023-01-11T19:26:07.261Z,99651.08
2023-01-11T19:36:11.633Z,99643.35
2023-01-11T19:46:30.789Z,99637.20
2023-01-11T19:56:35.218Z,99642.15
2023-01-11T20:06:42.017Z,99643.70
2023-01-11T20:16:46.300Z,99635.45
2023-01-11T20:26:50.033Z,99621.63
2023-01-11T20:36:56.875Z,99609.31
2023-01-11T20:47:01.402Z,99587.55
2023-01-11T20:57:08.523Z,99572.45
2023-01-11T21:07:12.329Z,99553.50
2023-01-11T21:17:16.720Z,99550.63
2023-01-11T21:27:20.323Z,99553.38
2023-01-11T21:37:24.906Z,99558.27
2023-01-11T21:47:28.569Z,99552.77
2023-01-11T21:57:32.061Z,99552.55
2023-01-11T22:07:38.448Z,99551.03
2023-01-11T22:17:42.255Z,99552.73
2023-01-11T22:27:45.936Z,99551.23
2023-01-11T22:37:49.456Z,99544.20
2023-01-11T22:47:53.040Z,99547.63
2023-01-11T22:57:56.913Z,99549.23
2023-01-11T23:08:00.546Z,99547.95
2023-01-11T23:18:05.333Z,99548.79
2023-01-11T23:28:08.867Z,99535.77
2023-01-11T23:38:12.805Z,99532.07
